sensor_id;sensor_type;location;lat;lon;timestamp;pressure;altitude;pressure_sealevel;temperature;humidity
82305;BME280;71914;47.382;8.168;2024-01-11T00:01:04;97553.03;;;-2.65;93.66
82305;BME280;71914;47.382;8.168;2024-01-11T00:03:29;97551.34;;;-2.66;92.90
82305;BME280;71914;47.382;8.168;2024-01-11T00:05:55;97557.56;;;-2.76;92.92
82305;BME280;71914;47.382;8.168;2024-01-11T00:08:20;97553.09;;;-2.68;93.51
82305;BME280;71914;47.382;8.168;2024-01-11T00:10:46;97558.19;;;-2.65;93.14
82305;BME280;71914;47.382;8.168;2024-01-11T00:13:12;97548.13;;;-2.74;92.79
82305;BME280;71914;47.382;8.168;2024-01-11T00:15:39;97555.88;;;-2.77;92.98
82305;BME280;71914;47.382;8.168;2024-01-11T00:18:05;97557.69;;;-2.81;92.91
82305;BME280;71914;47.382;8.168;2024-01-11T00:20:31;97557.75;;;-2.84;93.19
82305;BME280;71914;47.382;8.168;2024-01-11T00:22:57;97563.66;;;-2.80;93.34
82305;BME280;71914;47.382;8.168;2024-01-11T00:25:22;97555.09;;;-2.79;93.04
82305;BME280;71914;47.382;8.168;2024-01-11T00:27:48;97555.78;;;-2.73;93.16
82305;BME280;71914;47.382;8.168;2024-01-11T00:30:14;97550.56;;;-2.70;93.09
82305;BME280;71914;47.382;8.168;2024-01-11T00:32:41;97552.50;;;-2.79;93.19
82305;BME280;71914;47.382;8.168;2024-01-11T00:35:07;97556.66;;;-2.74;93.14
82305;BME280;71914;47.382;8.168;2024-01-11T00:37:33;97556.53;;;-2.68;93.05
82305;BME280;71914;47.382;8.168;2024-01-11T00:39:58;97560.88;;;-2.71;92.99
82305;BME280;71914;47.382;8.168;2024-01-11T00:42:24;97562.59;;;-2.72;92.45
82305;BME280;71914;47.382;8.168;2024-01-11T00:44:50;97555.09;;;-2.79;92.90
82305;BME280;71914;47.382;8.168;2024-01-11T00:47:15;97559.38;;;-2.81;93.01
82305;BME280;71914;47.382;8.168;2024-01-11T00:49:43;97561.13;;;-2.82;92.80
82305;BME280;71914;47.382;8.168;2024-01-11T00:52:09;97559.50;;;-2.86;92.78
82305;BME280;71914;47.382;8.168;2024-01-11T00:54:35;97559.44;;;-2.83;93.07
82305;BME280;71914;47.382;8.168;2024-01-11T00:57:01;97563.72;;;-2.84;92.94
82305;BME280;71914;47.382;8.168;2024-01-11T00:59:27;97561.88;;;-2.77;92.98
82305;BME280;71914;47.382;8.168;2024-01-11T01:01:52;97563.53;;;-2.74;92.86
82305;BME280;71914;47.382;8.168;2024-01-11T01:04:18;97567.88;;;-2.78;92.74
82305;BME280;71914;47.382;8.168;2024-01-11T01:06:45;97566.25;;;-2.82;92.77
82305;BME280;71914;47.382;8.168;2024-01-11T01:09:11;97573.13;;;-2.84;92.71
82305;BME280;71914;47.382;8.168;2024-01-11T01:11:37;97574.91;;;-2.88;93.20
82305;BME280;71914;47.382;8.168;2024-01-11T01:14:02;97580.00;;;-2.85;93.16
82305;BME280;71914;47.382;8.168;2024-01-11T01:16:28;97579.94;;;-2.83;92.88
82305;BME280;71914;47.382;8.168;2024-01-11T01:18:54;97574.72;;;-2.78;92.81
82305;BME280;71914;47.382;8.168;2024-01-11T01:21:19;97577.22;;;-2.75;93.15
82305;BME280;71914;47.382;8.168;2024-01-11T01:23:46;97582.22;;;-2.71;93.00
82305;BME280;71914;47.382;8.168;2024-01-11T01:26:12;97585.66;;;-2.70;92.81
82305;BME280;71914;47.382;8.168;2024-01-11T01:28:38;97584.59;;;-2.60;92.41
82305;BME280;71914;47.382;8.168;2024-01-11T01:31:05;97589.81;;;-2.64;92.43
82305;BME280;71914;47.382;8.168;2024-01-11T01:33:31;97585.50;;;-2.62;92.63
82305;BME280;71914;47.382;8.168;2024-01-11T01:35:56;97590.44;;;-2.55;92.47
82305;BME280;71914;47.382;8.168;2024-01-11T01:38:22;97589.72;;;-2.60;92.86
82305;BME280;71914;47.382;8.168;2024-01-11T01:40:49;97600.94;;;-2.64;92.40
82305;BME280;71914;47.382;8.168;2024-01-11T01:43:14;97596.66;;;-2.65;92.51
82305;BME280;71914;47.382;8.168;2024-01-11T01:45:40;97603.75;;;-2.76;92.53
82305;BME280;71914;47.382;8.168;2024-01-11T01:48:07;97602.81;;;-2.72;92.90
82305;BME280;71914;47.382;8.168;2024-01-11T01:50:32;97601.94;;;-2.71;92.73
82305;BME280;71914;47.382;8.168;2024-01-11T01:52:58;97603.63;;;-2.70;92.69
82305;BME280;71914;47.382;8.168;2024-01-11T01:55:26;97602.75;;;-2.69;93.65
82305;BME280;71914;47.382;8.168;2024-01-11T01:57:54;97607.72;;;-2.63;93.16
82305;BME280;71914;47.382;8.168;2024-01-11T02:00:21;97614.56;;;-2.62;93.25
82305;BME280;71914;47.382;8.168;2024-01-11T02:02:50;97617.25;;;-2.67;93.08
82305;BME280;71914;47.382;8.168;2024-01-11T02:05:18;97615.38;;;-2.60;92.26
82305;BME280;71914;47.382;8.168;2024-01-11T02:07:44;97614.84;;;-2.74;92.47
82305;BME280;71914;47.382;8.168;2024-01-11T02:10:10;97614.75;;;-2.71;92.72
82305;BME280;71914;47.382;8.168;2024-01-11T02:12:36;97618.41;;;-2.81;92.99
82305;BME280;71914;47.382;8.168;2024-01-11T02:15:07;97619.09;;;-2.75;92.72
82305;BME280;71914;47.382;8.168;2024-01-11T02:17:32;97625.06;;;-2.73;93.38
82305;BME280;71914;47.382;8.168;2024-01-11T02:19:58;97617.03;;;-2.59;94.33
82305;BME280;71914;47.382;8.168;2024-01-11T02:22:29;97614.13;;;-2.43;94.46
82305;BME280;71914;47.382;8.168;2024-01-11T02:24:56;97618.00;;;-2.63;92.37
82305;BME280;71914;47.382;8.168;2024-01-11T02:27:23;97618.00;;;-2.63;91.63
82305;BME280;71914;47.382;8.168;2024-01-11T02:29:49;97621.63;;;-2.72;91.38
82305;BME280;71914;47.382;8.168;2024-01-11T02:32:15;97615.88;;;-2.83;92.51
82305;BME280;71914;47.382;8.168;2024-01-11T02:34:41;97619.94;;;-2.73;91.74
82305;BME280;71914;47.382;8.168;2024-01-11T02:37:07;97621.72;;;-2.76;91.59
82305;BME280;71914;47.382;8.168;2024-01-11T02:39:33;97614.13;;;-2.83;91.40
82305;BME280;71914;47.382;8.168;2024-01-11T02:42:00;97619.31;;;-2.84;91.74
82305;BME280;71914;47.382;8.168;2024-01-11T02:44:26;97613.25;;;-2.81;92.17
82305;BME280;71914;47.382;8.168;2024-01-11T02:46:52;97617.31;;;-2.71;92.09
82305;BME280;71914;47.382;8.168;2024-01-11T02:49:17;97623.28;;;-2.69;92.07
82305;BME280;71914;47.382;8.168;2024-01-11T02:51:43;97619.75;;;-2.65;93.41
82305;BME280;71914;47.382;8.168;2024-01-11T02:54:09;97618.16;;;-2.71;92.91
82305;BME280;71914;47.382;8.168;2024-01-11T02:56:34;97623.09;;;-2.61;92.99
82305;BME280;71914;47.382;8.168;2024-01-11T02:59:02;97619.84;;;-2.70;92.23
82305;BME280;71914;47.382;8.168;2024-01-11T03:01:27;97622.44;;;-2.71;92.84
82305;BME280;71914;47.382;8.168;2024-01-11T03:03:54;97617.31;;;-2.71;91.90
82305;BME280;71914;47.382;8.168;2024-01-11T03:06:19;97615.09;;;-2.87;91.85
82305;BME280;71914;47.382;8.168;2024-01-11T03:08:47;97606.38;;;-2.79;91.14
82305;BME280;71914;47.382;8.168;2024-01-11T03:11:12;97602.09;;;-2.79;91.04
82305;BME280;71914;47.382;8.168;2024-01-11T03:13:38;97607.34;;;-2.84;91.03
82305;BME280;71914;47.382;8.168;2024-01-11T03:16:06;97603.00;;;-2.81;91.34
82305;BME280;71914;47.382;8.168;2024-01-11T03:18:31;97601.47;;;-2.90;91.49
82305;BME280;71914;47.382;8.168;2024-01-11T03:20:57;97602.22;;;-2.85;91.53
82305;BME280;71914;47.382;8.168;2024-01-11T03:23:23;97610.41;;;-2.68;93.50
82305;BME280;71914;47.382;8.168;2024-01-11T03:25:48;97600.22;;;-2.72;93.64
82305;BME280;71914;47.382;8.168;2024-01-11T03:28:14;97601.94;;;-2.71;91.79
82305;BME280;71914;47.382;8.168;2024-01-11T03:30:40;97600.16;;;-2.68;90.99
82305;BME280;71914;47.382;8.168;2024-01-11T03:33:07;97596.00;;;-2.75;90.91
82305;BME280;71914;47.382;8.168;2024-01-11T03:35:32;97588.13;;;-3.06;91.37
82305;BME280;71914;47.382;8.168;2024-01-11T03:37:58;97598.19;;;-2.95;91.46
82305;BME280;71914;47.382;8.168;2024-01-11T03:40:24;97594.06;;;-3.03;91.25
82305;BME280;71914;47.382;8.168;2024-01-11T03:42:49;97588.75;;;-2.95;91.66
82305;BME280;71914;47.382;8.168;2024-01-11T03:45:18;97588.84;;;-3.00;91.44
82305;BME280;71914;47.382;8.168;2024-01-11T03:47:47;97582.69;;;-2.91;91.21
82305;BME280;71914;47.382;8.168;2024-01-11T03:50:14;97599.97;;;-2.99;91.51
82305;BME280;71914;47.382;8.168;2024-01-11T03:52:39;97602.44;;;-2.96;92.98
82305;BME280;71914;47.382;8.168;2024-01-11T03:55:06;97595.47;;;-2.89;93.48
82305;BME280;71914;47.382;8.168;2024-01-11T03:57:32;97594.31;;;-2.74;94.21
82305;BME280;71914;47.382;8.168;2024-01-11T03:59:57;97595.22;;;-2.77;91.61
82305;BME280;71914;47.382;8.168;2024-01-11T04:02:24;97594.13;;;-3.06;91.57
82305;BME280;71914;47.382;8.168;2024-01-11T04:04:49;97594.72;;;-2.93;90.88
82305;BME280;71914;47.382;8.168;2024-01-11T04:07:16;97594.63;;;-2.90;90.65
82305;BME280;71914;47.382;8.168;2024-01-11T04:09:42;97590.38;;;-2.91;90.17
82305;BME280;71914;47.382;8.168;2024-01-11T04:12:08;97592.34;;;-3.04;90.50
82305;BME280;71914;47.382;8.168;2024-01-11T04:14:37;97596.44;;;-2.95;89.83
82305;BME280;71914;47.382;8.168;2024-01-11T04:17:04;97592.31;;;-3.01;89.50
82305;BME280;71914;47.382;8.168;2024-01-11T04:19:29;97584.63;;;-3.02;89.76
82305;BME280;71914;47.382;8.168;2024-01-11T04:21:55;97595.63;;;-2.95;91.32
82305;BME280;71914;47.382;8.168;2024-01-11T04:24:22;97591.91;;;-2.82;92.79
82305;BME280;71914;47.382;8.168;2024-01-11T04:26:48;97586.66;;;-2.77;91.42
82305;BME280;71914;47.382;8.168;2024-01-11T04:29:13;97587.59;;;-2.81;89.42
82305;BME280;71914;47.382;8.168;2024-01-11T04:31:39;97582.56;;;-2.85;89.35
82305;BME280;71914;47.382;8.168;2024-01-11T04:34:05;97585.91;;;-2.83;89.99
82305;BME280;71914;47.382;8.168;2024-01-11T04:36:30;97584.47;;;-2.93;89.94
82305;BME280;71914;47.382;8.168;2024-01-11T04:38:56;97585.16;;;-2.86;90.63
82305;BME280;71914;47.382;8.168;2024-01-11T04:41:23;97579.22;;;-2.88;90.12
82305;BME280;71914;47.382;8.168;2024-01-11T04:43:48;97586.16;;;-2.93;89.91
82305;BME280;71914;47.382;8.168;2024-01-11T04:46:15;97579.03;;;-2.80;93.94
82305;BME280;71914;47.382;8.168;2024-01-11T04:48:42;97578.88;;;-2.73;90.71
82305;BME280;71914;47.382;8.168;2024-01-11T04:51:08;97576.72;;;-2.91;89.44
82305;BME280;71914;47.382;8.168;2024-01-11T04:53:36;97580.06;;;-2.89;89.63
82305;BME280;71914;47.382;8.168;2024-01-11T04:56:02;97577.84;;;-3.03;89.63
82305;BME280;71914;47.382;8.168;2024-01-11T04:58:29;97578.22;;;-2.83;93.42
82305;BME280;71914;47.382;8.168;2024-01-11T05:01:01;97574.75;;;-2.80;89.48
82305;BME280;71914;47.382;8.168;2024-01-11T05:03:27;97575.59;;;-2.79;88.19
82305;BME280;71914;47.382;8.168;2024-01-11T05:05:53;97577.78;;;-3.02;89.12
82305;BME280;71914;47.382;8.168;2024-01-11T05:08:19;97576.13;;;-3.04;88.81
82305;BME280;71914;47.382;8.168;2024-01-11T05:10:44;97575.16;;;-2.98;88.45
82305;BME280;71914;47.382;8.168;2024-01-11T05:13:10;97569.97;;;-2.95;88.75
82305;BME280;71914;47.382;8.168;2024-01-11T05:15:37;97566.41;;;-2.90;88.29
82305;BME280;71914;47.382;8.168;2024-01-11T05:18:03;97572.63;;;-3.00;88.13
82305;BME280;71914;47.382;8.168;2024-01-11T05:20:29;97570.19;;;-3.06;88.92
82305;BME280;71914;47.382;8.168;2024-01-11T05:22:55;97568.31;;;-3.00;88.45
82305;BME280;71914;47.382;8.168;2024-01-11T05:25:20;97563.25;;;-3.01;88.59
82305;BME280;71914;47.382;8.168;2024-01-11T05:27:46;97563.97;;;-2.96;88.20
82305;BME280;71914;47.382;8.168;2024-01-11T05:30:12;97568.31;;;-2.98;88.56
82305;BME280;71914;47.382;8.168;2024-01-11T05:32:39;97567.56;;;-3.05;88.20
82305;BME280;71914;47.382;8.168;2024-01-11T05:35:05;97565.13;;;-3.09;88.08
82305;BME280;71914;47.382;8.168;2024-01-11T05:37:30;97568.63;;;-3.13;88.72
82305;BME280;71914;47.382;8.168;2024-01-11T05:39:56;97566.13;;;-3.17;88.86
82305;BME280;71914;47.382;8.168;2024-01-11T05:42:23;97574.47;;;-3.07;88.78
82305;BME280;71914;47.382;8.168;2024-01-11T05:44:48;97579.69;;;-3.11;89.53
82305;BME280;71914;47.382;8.168;2024-01-11T05:47:14;97569.91;;;-2.92;91.64
82305;BME280;71914;47.382;8.168;2024-01-11T05:49:41;97572.13;;;-2.77;89.36
82305;BME280;71914;47.382;8.168;2024-01-11T05:52:07;97574.75;;;-2.80;87.81
82305;BME280;71914;47.382;8.168;2024-01-11T05:54:32;97574.28;;;-2.97;88.18
82305;BME280;71914;47.382;8.168;2024-01-11T05:56:58;97569.28;;;-3.04;88.86
82305;BME280;71914;47.382;8.168;2024-01-11T05:59:24;97573.50;;;-3.01;88.77
82305;BME280;71914;47.382;8.168;2024-01-11T06:01:50;97565.00;;;-3.05;88.62
82305;BME280;71914;47.382;8.168;2024-01-11T06:04:16;97567.09;;;-3.22;89.27
82305;BME280;71914;47.382;8.168;2024-01-11T06:06:43;97568.78;;;-3.21;89.67
82305;BME280;71914;47.382;8.168;2024-01-11T06:09:09;97571.41;;;-3.23;89.19
82305;BME280;71914;47.382;8.168;2024-01-11T06:11:35;97568.53;;;-3.09;88.74
82305;BME280;71914;47.382;8.168;2024-01-11T06:14:01;97574.72;;;-3.18;89.32
82305;BME280;71914;47.382;8.168;2024-01-11T06:16:28;97579.88;;;-3.21;89.29
82305;BME280;71914;47.382;8.168;2024-01-11T06:18:53;97580.41;;;-3.05;92.11
82305;BME280;71914;47.382;8.168;2024-01-11T06:21:19;97578.38;;;-2.89;89.44
82305;BME280;71914;47.382;8.168;2024-01-11T06:23:46;97579.31;;;-2.93;88.98
82305;BME280;71914;47.382;8.168;2024-01-11T06:26:12;97578.78;;;-3.07;89.02
82305;BME280;71914;47.382;8.168;2024-01-11T06:28:37;97579.44;;;-2.99;88.80
82305;BME280;71914;47.382;8.168;2024-01-11T06:31:03;97587.88;;;-2.94;88.73
82305;BME280;71914;47.382;8.168;2024-01-11T06:33:29;97585.69;;;-3.11;89.27
82305;BME280;71914;47.382;8.168;2024-01-11T06:35:54;97584.19;;;-3.21;90.48
82305;BME280;71914;47.382;8.168;2024-01-11T06:38:21;97581.16;;;-2.98;91.76
82305;BME280;71914;47.382;8.168;2024-01-11T06:40:48;97580.44;;;-3.06;90.43
82305;BME280;71914;47.382;8.168;2024-01-11T06:43:14;97584.38;;;-3.30;89.76
82305;BME280;71914;47.382;8.168;2024-01-11T06:45:40;97592.53;;;-3.13;89.52
82305;BME280;71914;47.382;8.168;2024-01-11T06:48:06;97595.81;;;-3.06;90.39
82305;BME280;71914;47.382;8.168;2024-01-11T06:50:32;97600.75;;;-2.95;92.17
82305;BME280;71914;47.382;8.168;2024-01-11T06:52:58;97600.41;;;-2.80;92.96
82305;BME280;71914;47.382;8.168;2024-01-11T06:55:23;97601.13;;;-2.75;89.25
82305;BME280;71914;47.382;8.168;2024-01-11T06:57:50;97600.72;;;-2.94;88.62
82305;BME280;71914;47.382;8.168;2024-01-11T07:00:16;97606.47;;;-3.25;89.63
82305;BME280;71914;47.382;8.168;2024-01-11T07:02:42;97612.53;;;-3.29;90.04
82305;BME280;71914;47.382;8.168;2024-01-11T07:05:08;97610.91;;;-3.33;90.42
82305;BME280;71914;47.382;8.168;2024-01-11T07:07:33;97615.84;;;-3.24;90.02
82305;BME280;71914;47.382;8.168;2024-01-11T07:09:59;97616.75;;;-3.26;89.82
82305;BME280;71914;47.382;8.168;2024-01-11T07:12:25;97625.34;;;-3.29;89.98
82305;BME280;71914;47.382;8.168;2024-01-11T07:14:55;97621.88;;;-3.26;90.08
82305;BME280;71914;47.382;8.168;2024-01-11T07:17:20;97626.94;;;-3.23;89.98
82305;BME280;71914;47.382;8.168;2024-01-11T07:19:46;97629.59;;;-3.28;90.47
82305;BME280;71914;47.382;8.168;2024-01-11T07:22:11;97637.06;;;-3.17;91.75
82305;BME280;71914;47.382;8.168;2024-01-11T07:24:37;97638.66;;;-3.10;91.34
82305;BME280;71914;47.382;8.168;2024-01-11T07:27:03;97639.97;;;-2.92;89.80
82305;BME280;71914;47.382;8.168;2024-01-11T07:29:30;97640.44;;;-3.13;89.82
82305;BME280;71914;47.382;8.168;2024-01-11T07:31:58;97629.22;;;-3.09;89.51
82305;BME280;71914;47.382;8.168;2024-01-11T07:34:23;97639.50;;;-3.09;89.24
82305;BME280;71914;47.382;8.168;2024-01-11T07:36:49;97641.25;;;-3.13;89.58
82305;BME280;71914;47.382;8.168;2024-01-11T07:39:15;97643.00;;;-3.13;89.88
82305;BME280;71914;47.382;8.168;2024-01-11T07:41:41;97646.34;;;-3.11;89.54
82305;BME280;71914;47.382;8.168;2024-01-11T07:44:07;97644.66;;;-3.11;89.71
82305;BME280;71914;47.382;8.168;2024-01-11T07:46:32;97654.94;;;-3.14;89.94
82305;BME280;71914;47.382;8.168;2024-01-11T07:48:59;97658.31;;;-3.10;89.95
82305;BME280;71914;47.382;8.168;2024-01-11T07:51:25;97658.41;;;-3.15;90.10
82305;BME280;71914;47.382;8.168;2024-01-11T07:53:51;97667.28;;;-3.33;90.67
82305;BME280;71914;47.382;8.168;2024-01-11T07:56:16;97666.16;;;-3.18;90.42
82305;BME280;71914;47.382;8.168;2024-01-11T07:58:42;97672.06;;;-3.14;89.69
82305;BME280;71914;47.382;8.168;2024-01-11T08:01:09;97676.38;;;-3.15;89.52
82305;BME280;71914;47.382;8.168;2024-01-11T08:03:34;97677.25;;;-3.18;89.25
82305;BME280;71914;47.382;8.168;2024-01-11T08:06:02;97674.84;;;-3.25;89.50
82305;BME280;71914;47.382;8.168;2024-01-11T08:08:27;97673.09;;;-3.23;89.90
82305;BME280;71914;47.382;8.168;2024-01-11T08:10:53;97675.66;;;-3.22;89.75
82305;BME280;71914;47.382;8.168;2024-01-11T08:13:19;97679.88;;;-3.21;89.94
82305;BME280;71914;47.382;8.168;2024-01-11T08:15:46;97685.91;;;-3.23;89.76
82305;BME280;71914;47.382;8.168;2024-01-11T08:18:12;97692.69;;;-3.21;90.02
82305;BME280;71914;47.382;8.168;2024-01-11T08:20:39;97687.59;;;-3.22;89.56
82305;BME280;71914;47.382;8.168;2024-01-11T08:23:06;97688.50;;;-3.25;89.57
82305;BME280;71914;47.382;8.168;2024-01-11T08:25:32;97700.47;;;-3.25;89.94
82305;BME280;71914;47.382;8.168;2024-01-11T08:27:57;97702.19;;;-3.26;89.79
82305;BME280;71914;47.382;8.168;2024-01-11T08:30:23;97692.75;;;-3.24;89.86
82305;BME280;71914;47.382;8.168;2024-01-11T08:32:48;97686.75;;;-3.23;89.63
82305;BME280;71914;47.382;8.168;2024-01-11T08:35:14;97698.00;;;-3.30;89.66
82305;BME280;71914;47.382;8.168;2024-01-11T08:37:40;97692.06;;;-3.32;89.68
82305;BME280;71914;47.382;8.168;2024-01-11T08:40:08;97692.72;;;-3.22;89.60
82305;BME280;71914;47.382;8.168;2024-01-11T08:42:34;97692.81;;;-3.27;89.63
82305;BME280;71914;47.382;8.168;2024-01-11T08:45:00;97689.44;;;-3.29;89.61
82305;BME280;71914;47.382;8.168;2024-01-11T08:47:32;97686.94;;;-3.32;89.96
82305;BME280;71914;47.382;8.168;2024-01-11T08:49:57;97691.22;;;-3.34;90.75
82305;BME280;71914;47.382;8.168;2024-01-11T08:52:23;97688.81;;;-3.42;90.52
82305;BME280;71914;47.382;8.168;2024-01-11T08:54:49;97689.59;;;-3.38;90.55
82305;BME280;71914;47.382;8.168;2024-01-11T08:57:16;97690.22;;;-3.25;91.53
82305;BME280;71914;47.382;8.168;2024-01-11T08:59:42;97688.34;;;-3.17;91.19
82305;BME280;71914;47.382;8.168;2024-01-11T09:02:08;97694.97;;;-3.05;92.18
82305;BME280;71914;47.382;8.168;2024-01-11T09:04:34;97701.69;;;-2.98;90.66
82305;BME280;71914;47.382;8.168;2024-01-11T09:07:00;97699.06;;;-2.95;89.80
82305;BME280;71914;47.382;8.168;2024-01-11T09:09:25;97694.00;;;-3.00;89.68
82305;BME280;71914;47.382;8.168;2024-01-11T09:11:51;97699.41;;;-3.13;90.14
82305;BME280;71914;47.382;8.168;2024-01-11T09:14:18;97697.69;;;-3.13;90.06
82305;BME280;71914;47.382;8.168;2024-01-11T09:16:44;97704.38;;;-3.06;89.80
82305;BME280;71914;47.382;8.168;2024-01-11T09:19:11;97703.59;;;-3.09;89.80
82305;BME280;71914;47.382;8.168;2024-01-11T09:21:37;97707.16;;;-3.18;89.81
82305;BME280;71914;47.382;8.168;2024-01-11T09:24:03;97709.84;;;-3.23;90.24
82305;BME280;71914;47.382;8.168;2024-01-11T09:26:28;97707.97;;;-3.14;90.08
82305;BME280;71914;47.382;8.168;2024-01-11T09:28:54;97712.22;;;-3.13;89.61
82305;BME280;71914;47.382;8.168;2024-01-11T09:31:21;97705.53;;;-3.22;89.71
82305;BME280;71914;47.382;8.168;2024-01-11T09:33:46;97714.00;;;-3.17;90.05
82305;BME280;71914;47.382;8.168;2024-01-11T09:36:13;97713.03;;;-3.11;89.45
82305;BME280;71914;47.382;8.168;2024-01-11T09:38:39;97719.97;;;-3.17;89.73
82305;BME280;71914;47.382;8.168;2024-01-11T09:41:07;97726.06;;;-3.22;90.17
82305;BME280;71914;47.382;8.168;2024-01-11T09:43:33;97724.41;;;-3.26;90.06
82305;BME280;71914;47.382;8.168;2024-01-11T09:46:00;97720.22;;;-3.30;89.78
82305;BME280;71914;47.382;8.168;2024-01-11T09:48:29;97723.78;;;-3.39;90.57
82305;BME280;71914;47.382;8.168;2024-01-11T09:50:57;97725.25;;;-3.26;90.43
82305;BME280;71914;47.382;8.168;2024-01-11T09:53:24;97727.91;;;-3.30;89.63
82305;BME280;71914;47.382;8.168;2024-01-11T09:55:52;97732.19;;;-3.31;90.06
82305;BME280;71914;47.382;8.168;2024-01-11T09:58:20;97728.00;;;-3.37;89.88
82305;BME280;71914;47.382;8.168;2024-01-11T10:00:48;97721.94;;;-3.31;90.00
82305;BME280;71914;47.382;8.168;2024-01-11T10:03:17;97717.53;;;-3.23;90.84
82305;BME280;71914;47.382;8.168;2024-01-11T10:05:44;97719.91;;;-3.13;89.94
82305;BME280;71914;47.382;8.168;2024-01-11T10:08:10;97719.25;;;-3.25;89.37
82305;BME280;71914;47.382;8.168;2024-01-11T10:10:36;97709.28;;;-3.39;89.56
82305;BME280;71914;47.382;8.168;2024-01-11T10:13:03;97711.84;;;-3.40;90.06
82305;BME280;71914;47.382;8.168;2024-01-11T10:15:28;97712.91;;;-3.51;89.85
82305;BME280;71914;47.382;8.168;2024-01-11T10:17:54;97710.31;;;-3.49;89.65
82305;BME280;71914;47.382;8.168;2024-01-11T10:20:20;97709.34;;;-3.43;90.17
82305;BME280;71914;47.382;8.168;2024-01-11T10:22:50;97710.16;;;-3.43;89.98
82305;BME280;71914;47.382;8.168;2024-01-11T10:25:17;97707.78;;;-3.51;90.03
82305;BME280;71914;47.382;8.168;2024-01-11T10:27:44;97705.84;;;-3.39;90.27
82305;BME280;71914;47.382;8.168;2024-01-11T10:30:11;97717.88;;;-3.41;90.59
82305;BME280;71914;47.382;8.168;2024-01-11T10:32:43;97720.44;;;-3.41;90.50
82305;BME280;71914;47.382;8.168;2024-01-11T10:35:09;97719.47;;;-3.36;89.80
82305;BME280;71914;47.382;8.168;2024-01-11T10:37:36;97716.19;;;-3.44;90.30
82305;BME280;71914;47.382;8.168;2024-01-11T10:40:07;97719.22;;;-3.23;90.80
82305;BME280;71914;47.382;8.168;2024-01-11T10:42:41;97715.00;;;-3.24;89.28
82305;BME280;71914;47.382;8.168;2024-01-11T10:45:10;97711.97;;;-3.46;89.17
82305;BME280;71914;47.382;8.168;2024-01-11T10:47:42;97716.47;;;-3.61;89.49
82305;BME280;71914;47.382;8.168;2024-01-11T10:50:12;97705.22;;;-3.51;89.78
82305;BME280;71914;47.382;8.168;2024-01-11T10:52:43;97717.06;;;-3.45;89.99
82305;BME280;71914;47.382;8.168;2024-01-11T10:55:15;97716.94;;;-3.37;90.10
82305;BME280;71914;47.382;8.168;2024-01-11T10:57:42;97720.66;;;-3.55;89.27
82305;BME280;71914;47.382;8.168;2024-01-11T11:00:08;97719.53;;;-3.39;89.65
82305;BME280;71914;47.382;8.168;2024-01-11T11:02:37;97714.56;;;-3.50;89.17
82305;BME280;71914;47.382;8.168;2024-01-11T11:05:04;97724.00;;;-3.52;89.26
82305;BME280;71914;47.382;8.168;2024-01-11T11:07:34;97726.69;;;-3.59;90.09
82305;BME280;71914;47.382;8.168;2024-01-11T11:10:01;97727.38;;;-3.50;89.50
82305;BME280;71914;47.382;8.168;2024-01-11T11:12:31;97737.63;;;-3.48;89.37
82305;BME280;71914;47.382;8.168;2024-01-11T11:14:58;97732.75;;;-3.63;89.81
82305;BME280;71914;47.382;8.168;2024-01-11T11:17:25;97719.88;;;-3.60;90.49
82305;BME280;71914;47.382;8.168;2024-01-11T11:19:53;97724.09;;;-3.58;90.15
82305;BME280;71914;47.382;8.168;2024-01-11T11:22:19;97718.81;;;-3.48;89.75
82305;BME280;71914;47.382;8.168;2024-01-11T11:24:45;97715.44;;;-3.49;89.77
82305;BME280;71914;47.382;8.168;2024-01-11T11:27:13;97719.69;;;-3.48;89.84
82305;BME280;71914;47.382;8.168;2024-01-11T11:29:40;97712.00;;;-3.50;90.16
82305;BME280;71914;47.382;8.168;2024-01-11T11:32:05;97716.31;;;-3.52;90.33
82305;BME280;71914;47.382;8.168;2024-01-11T11:34:40;97711.00;;;-3.41;89.31
82305;BME280;71914;47.382;8.168;2024-01-11T11:37:07;97711.06;;;-3.45;89.88
82305;BME280;71914;47.382;8.168;2024-01-11T11:39:34;97703.31;;;-3.41;90.06
82305;BME280;71914;47.382;8.168;2024-01-11T11:42:00;97705.94;;;-3.44;89.77
82305;BME280;71914;47.382;8.168;2024-01-11T11:44:26;97691.41;;;-3.43;89.76
82305;BME280;71914;47.382;8.168;2024-01-11T11:46:54;97685.22;;;-3.31;89.28
82305;BME280;71914;47.382;8.168;2024-01-11T11:49:19;97680.19;;;-3.38;89.31
82305;BME280;71914;47.382;8.168;2024-01-11T11:51:45;97687.88;;;-3.36;89.32
82305;BME280;71914;47.382;8.168;2024-01-11T11:54:11;97682.47;;;-3.22;88.76
82305;BME280;71914;47.382;8.168;2024-01-11T11:56:37;97678.22;;;-3.22;88.11
82305;BME280;71914;47.382;8.168;2024-01-11T11:59:03;97675.75;;;-3.28;88.24
82305;BME280;71914;47.382;8.168;2024-01-11T12:01:29;97675.75;;;-3.28;88.70
82305;BME280;71914;47.382;8.168;2024-01-11T12:03:57;97668.28;;;-3.40;89.33
82305;BME280;71914;47.382;8.168;2024-01-11T12:06:24;97657.22;;;-3.42;88.69
82305;BME280;71914;47.382;8.168;2024-01-11T12:08:52;97665.63;;;-3.36;89.20
82305;BME280;71914;47.382;8.168;2024-01-11T12:11:19;97659.81;;;-3.45;88.61
82305;BME280;71914;47.382;8.168;2024-01-11T12:13:46;97662.09;;;-3.30;88.67
82305;BME280;71914;47.382;8.168;2024-01-11T12:16:12;97656.25;;;-3.37;88.34
82305;BME280;71914;47.382;8.168;2024-01-11T12:18:38;97656.97;;;-3.30;88.64
82305;BME280;71914;47.382;8.168;2024-01-11T12:21:06;97657.72;;;-3.25;88.17
82305;BME280;71914;47.382;8.168;2024-01-11T12:23:33;97657.13;;;-3.36;88.48
82305;BME280;71914;47.382;8.168;2024-01-11T12:26:01;97655.66;;;-3.51;88.95
82305;BME280;71914;47.382;8.168;2024-01-11T12:28:27;97650.47;;;-3.46;89.41
82305;BME280;71914;47.382;8.168;2024-01-11T12:30:53;97643.56;;;-3.44;89.57
82305;BME280;71914;47.382;8.168;2024-01-11T12:33:19;97650.81;;;-3.20;89.42
82305;BME280;71914;47.382;8.168;2024-01-11T12:35:47;97647.47;;;-3.25;88.78
82305;BME280;71914;47.382;8.168;2024-01-11T12:38:15;97650.91;;;-3.24;88.62
82305;BME280;71914;47.382;8.168;2024-01-11T12:40:41;97648.66;;;-3.41;88.97
82305;BME280;71914;47.382;8.168;2024-01-11T12:43:07;97657.00;;;-3.31;89.06
82305;BME280;71914;47.382;8.168;2024-01-11T12:45:34;97666.56;;;-3.40;89.25
82305;BME280;71914;47.382;8.168;2024-01-11T12:48:00;97669.91;;;-3.35;89.00
82305;BME280;71914;47.382;8.168;2024-01-11T12:50:26;97655.72;;;-3.54;89.83
82305;BME280;71914;47.382;8.168;2024-01-11T12:53:09;97662.50;;;-3.52;90.12
82305;BME280;71914;47.382;8.168;2024-01-11T12:55:38;97660.72;;;-3.46;90.10